createdAt,value
2018-05-15T02:43:47.388Z,3
2018-05-15T02:52:17.865Z,7
2018-05-15T02:55:48.120Z,10
2018-05-15T02:58:18.188Z,13
2018-05-15T03:00:18.310Z,17
2018-05-15T03:01:48.460Z,20
2018-05-15T03:02:48.524Z,23
2018-05-15T03:04:18.618Z,27
2018-05-15T03:04:48.669Z,30
2018-05-15T03:05:48.724Z,33
2018-05-15T03:06:48.732Z,37
2018-05-15T03:07:18.838Z,40
2018-05-15T03:07:48.828Z,43
2018-05-15T03:08:48.921Z,47
2018-05-15T03:09:18.896Z,50
2018-05-15T03:09:48.939Z,53
2018-05-15T03:10:18.964Z,57
2018-05-15T03:10:48.969Z,60
2018-05-15T03:11:19.057Z,67
2018-05-15T03:11:49.189Z,70
2018-05-15T03:12:19.126Z,73
2018-05-15T03:12:49.138Z,77
2018-05-15T03:13:19.142Z,80
2018-05-15T03:13:49.221Z,87
2018-05-15T03:14:19.213Z,90
2018-05-15T03:14:49.283Z,93
2018-05-15T03:15:19.339Z,97
2018-05-15T03:15:49.292Z,103
2018-05-15T03:16:19.331Z,107
2018-05-15T03:16:49.400Z,110
2018-05-15T03:17:19.407Z,117
2018-05-15T03:17:49.408Z,120
2018-05-15T03:18:19.443Z,127
2018-05-15T03:18:49.508Z,130
2018-05-15T03:19:19.496Z,137
2018-05-15T03:19:49.563Z,143
2018-05-15T03:20:19.588Z,150
2018-05-15T03:20:49.624Z,157
2018-05-15T03:21:19.634Z,160
2018-05-15T03:21:49.646Z,170
2018-05-15T03:22:19.692Z,177
2018-05-15T03:22:49.720Z,183
2018-05-15T03:23:19.728Z,190
2018-05-15T03:23:49.805Z,197
2018-05-15T03:24:19.794Z,207
2018-05-15T03:24:49.885Z,213
2018-05-15T03:25:19.869Z,217
2018-05-15T03:25:49.880Z,227
2018-05-15T03:26:19.918Z,237
2018-05-15T03:26:49.943Z,247
2018-05-15T03:27:19.977Z,253
2018-05-15T03:27:50.062Z,263
2018-05-15T03:28:20.034Z,273
2018-05-15T03:28:50.078Z,283
2018-05-15T03:29:20.129Z,293
2018-05-15T03:29:50.139Z,303
2018-05-15T03:30:20.213Z,313
2018-05-15T03:30:50.239Z,323
2018-05-15T03:31:20.263Z,333
2018-05-15T03:31:50.305Z,347
2018-05-15T03:32:20.282Z,357
2018-05-15T03:32:50.345Z,373
2018-05-15T03:33:20.346Z,387
2018-05-15T03:33:50.404Z,400
2018-05-15T03:34:20.408Z,413
2018-05-15T03:34:50.472Z,427
2018-05-15T03:35:20.563Z,440
2018-05-15T03:35:50.952Z,457
2018-05-15T03:36:20.570Z,473
2018-05-15T03:36:50.587Z,487
2018-05-15T03:37:20.593Z,503
2018-05-15T03:37:50.657Z,517
2018-05-15T03:38:20.724Z,537
2018-05-15T03:38:50.717Z,553
2018-05-15T03:39:20.736Z,573
2018-05-15T03:39:50.779Z,593
2018-05-15T03:40:20.815Z,613
2018-05-15T03:40:50.852Z,640
2018-05-15T03:41:20.837Z,660
2018-05-15T03:41:50.908Z,690
2018-05-15T03:42:20.937Z,727
2018-05-15T03:42:50.982Z,763
2018-05-15T03:43:20.987Z,807
2018-05-15T03:43:51.018Z,853
2018-05-15T03:44:21.080Z,910
2018-05-15T03:44:51.088Z,967
2018-05-15T03:45:21.132Z,1027
2018-05-15T03:45:51.168Z,1083
2018-05-15T03:46:21.174Z,1140
2018-05-15T03:46:51.198Z,1197
2018-05-15T03:47:21.236Z,1253
2018-05-15T03:47:51.285Z,1300
2018-05-15T03:48:21.323Z,1343
2018-05-15T03:48:51.347Z,1383
2018-05-15T03:49:21.399Z,1413
2018-05-15T03:49:51.411Z,1437
2018-05-15T03:50:21.434Z,1453
2018-05-15T03:50:51.486Z,1463
2018-05-15T03:51:21.490Z,1473
2018-05-15T03:51:51.542Z,1477
2018-05-15T03:52:21.541Z,1480
2018-05-15T03:53:51.674Z,1483
2018-05-15T03:54:21.703Z,1487
2018-05-15T03:54:51.716Z,1493
2018-05-15T03:55:21.768Z,1510
2018-05-15T03:55:51.777Z,1530
2018-05-15T03:56:21.754Z,1550
2018-05-15T03:56:51.858Z,1570
2018-05-15T03:57:21.862Z,1593
2018-05-15T03:57:51.913Z,1610
2018-05-15T03:58:21.938Z,1627
2018-05-15T03:58:51.966Z,1640
2018-05-15T03:59:21.972Z,1653
2018-05-15T03:59:52.037Z,1657
2018-05-15T04:00:22.092Z,1663
2018-05-15T04:00:52.083Z,1667
2018-05-15T04:01:52.151Z,1663
2018-05-15T04:02:22.203Z,1657
2018-05-15T04:02:52.206Z,1647
2018-05-15T04:03:22.237Z,1637
2018-05-15T04:03:52.297Z,1623
2018-05-15T04:04:22.309Z,1613
2018-05-15T04:04:52.332Z,1607
2018-05-15T04:05:22.419Z,1603
2018-05-15T04:05:52.401Z,1597
2018-05-15T04:06:22.418Z,1600
2018-05-15T04:09:52.615Z,1603
2018-05-15T04:10:22.659Z,1613
2018-05-15T04:10:52.749Z,1623
2018-05-15T04:11:22.738Z,1637
2018-05-15T04:11:52.800Z,1647
2018-05-15T04:12:22.793Z,1660
2018-05-15T04:12:52.770Z,1677
2018-05-15T04:13:22.803Z,1690
2018-05-15T04:13:52.835Z,1707
2018-05-15T04:14:22.899Z,1723
2018-05-15T04:14:52.893Z,1747
2018-05-15T04:15:22.971Z,1773
2018-05-15T04:15:52.956Z,1803
2018-05-15T04:16:23.009Z,1827
2018-05-15T04:16:53.012Z,1847
2018-05-15T04:17:23.054Z,1863
2018-05-15T04:17:53.120Z,1880
2018-05-15T04:18:23.107Z,1897
2018-05-15T04:18:53.214Z,1920
2018-05-15T04:19:23.234Z,1940
2018-05-15T04:19:53.212Z,1970
2018-05-15T04:20:23.312Z,2003
2018-05-15T04:20:53.275Z,2043
2018-05-15T04:21:23.322Z,2087
2018-05-15T04:21:53.388Z,2133
2018-05-15T04:22:23.431Z,2180
2018-05-15T04:22:53.407Z,2230
2018-05-15T04:23:23.435Z,2290
2018-05-15T04:23:53.539Z,2347
2018-05-15T04:24:23.490Z,2403
2018-05-15T04:24:53.563Z,2463
2018-05-15T04:25:23.615Z,2533
2018-05-15T04:25:53.659Z,2603
2018-05-15T04:26:23.636Z,2673
2018-05-15T04:26:53.635Z,2743
2018-05-15T04:27:23.664Z,2813
2018-05-15T04:27:53.723Z,2883
2018-05-15T04:28:23.864Z,2953
2018-05-15T04:28:53.772Z,3027
2018-05-15T04:29:23.787Z,3093
2018-05-15T04:29:53.917Z,3150
2018-05-15T04:30:23.871Z,3203
2018-05-15T04:30:53.885Z,3257
2018-05-15T04:31:23.913Z,3307
2018-05-15T04:31:53.942Z,3343
2018-05-15T04:32:23.999Z,3387
2018-05-15T04:32:54.010Z,3423
2018-05-15T04:33:24.195Z,3470
2018-05-15T04:33:54.142Z,3503
2018-05-15T04:34:24.131Z,3537
2018-05-15T04:34:54.187Z,3567
2018-05-15T04:35:24.293Z,3590
2018-05-15T04:35:54.271Z,3617
2018-05-15T04:36:24.308Z,3643
2018-05-15T04:36:54.305Z,3680
2018-05-15T04:37:24.363Z,3720
2018-05-15T04:37:54.369Z,3770
2018-05-15T04:38:24.368Z,3830
2018-05-15T04:38:54.449Z,3893
2018-05-15T04:39:24.423Z,3963
2018-05-15T04:39:54.484Z,4033
2018-05-15T04:40:24.489Z,4100
2018-05-15T04:40:54.603Z,4167
2018-05-15T04:41:24.607Z,4237
2018-05-15T04:41:54.612Z,4310
2018-05-15T04:42:24.660Z,4397
2018-05-15T04:42:54.651Z,4483
2018-05-15T04:43:24.727Z,4577
2018-05-15T04:43:54.783Z,4673
2018-05-15T04:44:24.713Z,4770
2018-05-15T04:44:54.791Z,4877
2018-05-15T04:45:24.870Z,4970
2018-05-15T04:45:54.877Z,5060
2018-05-15T04:46:24.910Z,5450
2018-05-15T04:46:54.915Z,6397
2018-05-15T04:47:24.931Z,7570
2018-05-15T04:47:55.009Z,8710
2018-05-15T04:48:25.016Z,9550
2018-05-15T04:48:55.046Z,9750
2018-05-15T04:49:25.131Z,9747
2018-05-15T04:49:55.129Z,9767
2018-05-15T04:50:25.170Z,9763
2018-05-15T04:51:25.459Z,9760
2018-05-15T04:51:55.204Z,9770
2018-05-15T04:52:25.262Z,9783
2018-05-15T04:52:55.290Z,9813
2018-05-15T04:53:25.358Z,9667
2018-05-15T04:53:55.364Z,9213
2018-05-15T04:54:25.392Z,8287
2018-05-15T04:54:55.409Z,7703
2018-05-15T04:55:25.459Z,7563
2018-05-15T04:55:55.455Z,7237
2018-05-15T04:56:25.521Z,7293
2018-05-15T04:56:55.493Z,7663
2018-05-15T04:57:25.524Z,7710
2018-05-15T04:57:55.550Z,7927
2018-05-15T04:58:25.606Z,8010
2018-05-15T04:58:55.624Z,7357
2018-05-15T04:59:25.635Z,6323
2018-05-15T04:59:55.675Z,5560
2018-05-15T05:00:25.772Z,4890
2018-05-15T05:00:55.743Z,4797
2018-05-15T05:01:25.810Z,4910
2018-05-15T05:01:55.821Z,5357
2018-05-15T05:02:25.825Z,6023
2018-05-15T05:02:55.846Z,6477
2018-05-15T05:03:25.876Z,6533
2018-05-15T05:03:55.954Z,7560
2018-05-15T05:04:25.958Z,7240
2018-05-15T05:04:55.986Z,7390
2018-05-15T05:05:26.017Z,7623
2018-05-15T05:05:56.090Z,7753
2018-05-15T05:06:26.123Z,7683
2018-05-15T05:06:56.121Z,7920
2018-05-15T05:07:26.125Z,7393
2018-05-15T05:07:56.163Z,6400
2018-05-15T05:08:26.204Z,6373
2018-05-15T05:08:56.270Z,5383
2018-05-15T05:09:26.326Z,4630
2018-05-15T05:09:56.350Z,4507
2018-05-15T05:10:26.335Z,4633
2018-05-15T05:10:56.416Z,4730
2018-05-15T05:11:26.444Z,4780
2018-05-15T05:11:56.438Z,5047
2018-05-15T05:12:26.456Z,5333
2018-05-15T05:12:56.492Z,6550
2018-05-15T05:13:26.544Z,8580
2018-05-15T05:13:56.549Z,10857
2018-05-15T05:14:26.634Z,10670
2018-05-15T05:14:56.619Z,9957
2018-05-15T05:15:26.691Z,9053
2018-05-15T05:15:56.677Z,8167
2018-05-15T05:16:26.800Z,7890
2018-05-15T05:16:56.707Z,7770
2018-05-15T05:17:26.780Z,6823
2018-05-15T05:17:56.842Z,6797
2018-05-15T05:18:26.814Z,5417
2018-05-15T05:18:56.883Z,5380
2018-05-15T05:19:26.885Z,5460
2018-05-15T05:19:56.931Z,5703
2018-05-15T05:20:26.995Z,6217
2018-05-15T05:20:57.012Z,5280
2018-05-15T05:21:27.269Z,4560
2018-05-15T05:21:57.088Z,4500
2018-05-15T05:22:27.088Z,4583
2018-05-15T05:22:57.153Z,4653
2018-05-15T05:23:27.149Z,4640
2018-05-15T05:23:57.177Z,4747
2018-05-15T05:24:27.283Z,4787
2018-05-15T05:24:57.251Z,4973
2018-05-15T05:25:27.273Z,5303
2018-05-15T05:25:57.319Z,6110
2018-05-15T05:26:27.357Z,6107
2018-05-15T05:26:57.399Z,6227
2018-05-15T05:27:27.402Z,5673
2018-05-15T05:27:57.429Z,6633
2018-05-15T05:28:27.427Z,9120
2018-05-15T05:28:57.449Z,10333
2018-05-15T05:29:27.509Z,11247
2018-05-15T05:29:57.572Z,10667
2018-05-15T05:30:57.611Z,10293
2018-05-15T05:31:27.691Z,9413
2018-05-15T05:31:57.684Z,8840
2018-05-15T05:32:27.719Z,6070
2018-05-15T05:32:57.754Z,6560
2018-05-15T05:33:27.755Z,5813
2018-05-15T05:33:57.812Z,5587
2018-05-15T05:34:27.823Z,5303
2018-05-15T05:34:57.870Z,5223
2018-05-15T05:35:27.888Z,4960
2018-05-15T05:35:57.978Z,5463
2018-05-15T05:36:27.952Z,5610
2018-05-15T05:36:58.026Z,5727
2018-05-15T05:37:28.008Z,5310
2018-05-15T05:37:58.033Z,5410
2018-05-15T05:38:28.061Z,4857
2018-05-15T05:38:58.122Z,4807
2018-05-15T05:39:28.134Z,4907
2018-05-15T05:39:58.157Z,4727
2018-05-15T05:40:28.186Z,4753
2018-05-15T05:40:58.208Z,4710
2018-05-15T05:41:28.307Z,4757
2018-05-15T05:41:58.359Z,4763
2018-05-15T05:42:28.292Z,4807
2018-05-15T05:42:58.525Z,4780
2018-05-15T05:43:28.380Z,4787
2018-05-15T05:43:58.428Z,4800
2018-05-15T05:44:28.436Z,4870
2018-05-15T05:44:58.498Z,4850
2018-05-15T05:45:28.495Z,4943
2018-05-15T05:45:58.546Z,4977
2018-05-15T05:46:28.663Z,4907
2018-05-15T05:46:58.645Z,4990
2018-05-15T05:47:28.638Z,5320
2018-05-15T05:47:58.622Z,5280
2018-05-15T05:48:28.700Z,5307
2018-05-15T05:48:58.731Z,5480
2018-05-15T05:49:28.719Z,6100
2018-05-15T05:49:58.738Z,6027
2018-05-15T05:50:28.809Z,6353
2018-05-15T05:50:58.835Z,5573
2018-05-15T05:51:28.839Z,5073
2018-05-15T05:51:58.967Z,5030
2018-05-15T05:52:28.961Z,5017
2018-05-15T05:52:58.933Z,5020
2018-05-15T05:53:28.962Z,5040
2018-05-15T05:53:58.997Z,5060
2018-05-15T05:54:29.030Z,5083
2018-05-15T05:54:59.053Z,5100
2018-05-15T05:55:29.080Z,5120
2018-05-15T05:55:59.110Z,5150
2018-05-15T05:56:29.197Z,5170
2018-05-15T05:56:59.170Z,5210
2018-05-15T05:57:29.267Z,5233
2018-05-15T05:57:59.260Z,5283
2018-05-15T05:58:29.299Z,5330
2018-05-15T05:58:59.377Z,5413
2018-05-15T05:59:29.345Z,5517
2018-05-15T05:59:59.369Z,5427
2018-05-15T06:00:29.426Z,5357
2018-05-15T06:00:59.480Z,5373
2018-05-15T06:01:29.470Z,5380
2018-05-15T06:01:59.506Z,5413
2018-05-15T06:02:29.607Z,5407
2018-05-15T06:02:59.589Z,5443
2018-05-15T06:03:29.607Z,5483
2018-05-15T06:03:59.648Z,5527
2018-05-15T06:04:29.649Z,5427
2018-05-15T06:04:59.712Z,5437
2018-05-15T06:05:29.713Z,5450
2018-05-15T06:05:59.766Z,5610
2018-05-15T06:06:29.768Z,5833
2018-05-15T06:06:59.816Z,6237
2018-05-15T06:07:29.925Z,6403
2018-05-15T06:07:59.872Z,6393
2018-05-15T06:08:29.924Z,6180
2018-05-15T06:08:59.980Z,6457
2018-05-15T06:09:29.991Z,6257
2018-05-15T06:10:00.029Z,5550
2018-05-15T06:10:30.047Z,5543
2018-05-15T06:11:00.080Z,5547
2018-05-15T06:11:30.106Z,5557
2018-05-15T06:12:00.149Z,5563
2018-05-15T06:13:00.224Z,5573
2018-05-15T06:13:30.231Z,5580
2018-05-15T06:14:00.877Z,5593
2018-05-15T06:15:01.158Z,5610
2018-05-15T06:15:30.356Z,5607
2018-05-15T06:16:01.524Z,5627
2018-05-15T06:16:30.418Z,5640
2018-05-15T06:17:01.704Z,5677
2018-05-15T06:17:30.490Z,5763
2018-05-15T06:18:01.703Z,5697
2018-05-15T06:18:30.548Z,5713
2018-05-15T06:19:01.494Z,5687
2018-05-15T06:19:30.613Z,5790
2018-05-15T06:20:00.994Z,5690
2018-05-15T06:20:30.670Z,5700
2018-05-15T06:21:01.139Z,5727
2018-05-15T06:21:30.734Z,5790
2018-05-15T06:22:01.364Z,5773
2018-05-15T06:22:30.790Z,5753
2018-05-15T06:23:00.896Z,5757
2018-05-15T06:23:30.855Z,5740
2018-05-15T06:24:01.626Z,5757
2018-05-15T06:24:30.918Z,5760
2018-05-15T06:25:32.939Z,5777
2018-05-15T06:26:02.206Z,5807
2018-05-15T06:26:32.281Z,5810
2018-05-15T06:27:02.373Z,5860
2018-05-15T06:27:33.244Z,5923
2018-05-15T06:28:03.277Z,5957
2018-05-15T06:28:33.290Z,6017
2018-05-15T06:29:03.319Z,6027
2018-05-15T06:29:33.379Z,6157
2018-05-15T06:30:03.408Z,6030
2018-05-15T06:30:33.414Z,6190
2018-05-15T06:31:03.484Z,6427
2018-05-15T06:31:33.475Z,6397
2018-05-15T06:32:03.515Z,6340
2018-05-15T06:32:33.565Z,6237
2018-05-15T06:33:03.604Z,6103
2018-05-15T06:33:33.592Z,6083
2018-05-15T06:34:03.650Z,6050
2018-05-15T06:34:33.697Z,6130
2018-05-15T06:35:03.760Z,6127
2018-05-15T06:35:33.756Z,6083
2018-05-15T06:36:03.796Z,6200
2018-05-15T06:36:33.811Z,6180
2018-05-15T06:37:03.839Z,6187
2018-05-15T06:37:33.884Z,6183
2018-05-15T06:38:03.922Z,6223
2018-05-15T06:38:33.967Z,6173
2018-05-15T06:39:03.976Z,6193
2018-05-15T06:39:33.996Z,6213
2018-05-15T06:40:04.075Z,6240
2018-05-15T06:40:34.041Z,6253
2018-05-15T06:41:04.076Z,6273
2018-05-15T06:41:34.139Z,6297
2018-05-15T06:42:04.167Z,6327
2018-05-15T06:42:34.188Z,6353
2018-05-15T06:43:04.200Z,6400
2018-05-15T06:43:34.251Z,6430
2018-05-15T06:44:04.275Z,6453
2018-05-15T06:44:34.303Z,6463
2018-05-15T06:45:04.396Z,6523
2018-05-15T06:45:34.368Z,6543
2018-05-15T06:46:04.409Z,6570
2018-05-15T06:46:34.411Z,6623
2018-05-15T06:47:04.453Z,6613
2018-05-15T06:47:34.508Z,6603
2018-05-15T06:48:04.480Z,6620
2018-05-15T06:48:34.536Z,6670
2018-05-15T06:49:04.527Z,6680
2018-05-15T06:49:34.624Z,6647
2018-05-15T06:50:04.659Z,6617
2018-05-15T06:50:34.631Z,6613
2018-05-15T06:51:34.740Z,6617
2018-05-15T06:52:04.718Z,6630
2018-05-15T06:53:04.774Z,6663
2018-05-15T06:53:34.807Z,6647
2018-05-15T06:54:04.853Z,6673
2018-05-15T06:54:34.872Z,6557
2018-05-15T06:55:04.910Z,6540
2018-05-15T06:55:34.923Z,6543
2018-05-15T06:56:04.951Z,6537
2018-05-15T06:56:35.052Z,6503
2018-05-15T06:57:05.030Z,6517
2018-05-15T06:57:35.049Z,6503
2018-05-15T06:58:05.120Z,6557
2018-05-15T06:58:35.174Z,6667
2018-05-15T06:59:35.181Z,6693
2018-05-15T07:00:05.258Z,6757
2018-05-15T07:00:35.290Z,6657
2018-05-15T07:01:05.272Z,6790
2018-05-15T07:01:35.311Z,6760
2018-05-15T07:02:05.348Z,6837
2018-05-15T07:02:35.409Z,6873
2018-05-15T07:03:05.441Z,6830
2018-05-15T07:03:35.456Z,6870
2018-05-15T07:04:05.483Z,6913
2018-05-15T07:04:35.506Z,6990
2018-05-15T07:05:05.580Z,7050
2018-05-15T07:05:35.589Z,7097
2018-05-15T07:06:05.617Z,7143
2018-05-15T07:06:35.653Z,7197
2018-05-15T07:07:05.661Z,7253
2018-05-15T07:07:35.685Z,7303
2018-05-15T07:08:05.729Z,7347
2018-05-15T07:08:35.827Z,7370
2018-05-15T07:09:05.817Z,7400
2018-05-15T07:09:35.844Z,7410
2018-05-15T07:10:05.868Z,7583
2018-05-15T07:10:36.121Z,7520
2018-05-15T07:11:05.880Z,7580
2018-05-15T07:11:35.951Z,7647
2018-05-15T07:12:05.930Z,7943
2018-05-15T07:12:35.992Z,8353
2018-05-15T07:13:05.990Z,7863
2018-05-15T07:13:36.058Z,7597
2018-05-15T07:14:06.156Z,7410
2018-05-15T07:14:36.154Z,7303
2018-05-15T07:15:06.492Z,7477
2018-05-15T07:15:36.184Z,7713
2018-05-15T07:16:06.239Z,8130
2018-05-15T07:16:36.262Z,8107
2018-05-15T07:17:06.288Z,7383
2018-05-15T07:17:36.271Z,7263
2018-05-15T07:18:06.348Z,7457
2018-05-15T07:18:36.410Z,7780
2018-05-15T07:19:06.416Z,7207
2018-05-15T07:19:36.513Z,7233
2018-05-15T07:20:06.545Z,7280
2018-05-15T07:20:36.522Z,7547
2018-05-15T07:21:06.498Z,7883
2018-05-15T07:21:36.551Z,8007
2018-05-15T07:22:06.630Z,7330
2018-05-15T07:22:36.621Z,8490
2018-05-15T07:23:06.666Z,9030
2018-05-15T07:23:36.694Z,8980
2018-05-15T07:24:06.699Z,7567
2018-05-15T07:24:36.739Z,7360
2018-05-15T07:25:06.841Z,7753
2018-05-15T07:25:36.817Z,7437
2018-05-15T07:26:06.864Z,7227
2018-05-15T07:26:36.911Z,7297
2018-05-15T07:27:06.935Z,7340
2018-05-15T07:27:36.923Z,7430
2018-05-15T07:28:06.930Z,7557
2018-05-15T07:28:36.995Z,7893
2018-05-15T07:29:07.039Z,8247
2018-05-15T07:29:37.076Z,8080
2018-05-15T07:30:07.149Z,9350
2018-05-15T07:30:37.151Z,9947
2018-05-15T07:31:07.193Z,10577
2018-05-15T07:31:37.216Z,9437
2018-05-15T07:32:07.231Z,8253
2018-05-15T07:32:37.211Z,8107
2018-05-15T07:33:07.296Z,7800
2018-05-15T07:33:37.335Z,7817
2018-05-15T07:34:07.305Z,7887
2018-05-15T07:34:37.347Z,7843
2018-05-15T07:35:07.433Z,7817
2018-05-15T07:35:37.422Z,7830
2018-05-15T07:36:07.431Z,7900
2018-05-15T07:36:37.476Z,7940
2018-05-15T07:37:07.531Z,8133
2018-05-15T07:37:37.532Z,8570
2018-05-15T07:38:07.555Z,9767
2018-05-15T07:38:37.571Z,9683
2018-05-15T07:39:07.661Z,14410
2018-05-15T07:39:37.662Z,15007
2018-05-15T07:40:07.792Z,13913
2018-05-15T07:40:37.699Z,14390
2018-05-15T07:41:07.777Z,13187
2018-05-15T07:41:37.789Z,11013
2018-05-15T07:42:07.788Z,12497
2018-05-15T07:42:37.838Z,11413
2018-05-15T07:43:07.845Z,11137
2018-05-15T07:43:37.879Z,9047
2018-05-15T07:44:07.905Z,9417
2018-05-15T07:44:37.938Z,9673
2018-05-15T07:45:08.011Z,9267
2018-05-15T07:45:38.029Z,9547
2018-05-15T07:46:08.029Z,8833
2018-05-15T07:46:38.064Z,9647
2018-05-15T07:47:08.088Z,9040
2018-05-15T07:47:38.185Z,9250
2018-05-15T07:48:08.182Z,9470
2018-05-15T07:48:38.221Z,9637
2018-05-15T07:49:08.262Z,9767
2018-05-15T07:49:38.251Z,9187
2018-05-15T07:50:08.350Z,9100
2018-05-15T07:50:38.337Z,8720
2018-05-15T07:51:08.463Z,8750
2018-05-15T07:51:38.370Z,9257
2018-05-15T07:52:08.479Z,8870
2018-05-15T07:52:38.463Z,9303
2018-05-15T07:53:08.484Z,8820
2018-05-15T07:53:38.523Z,8783
2018-05-15T07:54:08.604Z,8767
2018-05-15T07:55:08.633Z,8713
2018-05-15T07:55:38.659Z,8703
2018-05-15T07:56:08.649Z,8747
2018-05-15T07:56:38.715Z,8820
2018-05-15T07:57:08.750Z,8790
2018-05-15T07:57:38.780Z,8830
2018-05-15T07:58:08.837Z,8777
2018-05-15T07:58:38.843Z,8830
2018-05-15T07:59:08.837Z,8817
2018-05-15T07:59:38.901Z,8893
2018-05-15T08:00:08.930Z,8750
2018-05-15T08:00:38.964Z,8733
2018-05-15T08:01:09.019Z,8740
2018-05-15T08:01:39.037Z,8707
2018-05-15T08:02:09.138Z,8680
2018-05-15T08:02:39.079Z,8727
2018-05-15T08:03:09.128Z,8740
2018-05-15T08:03:39.160Z,8850
2018-05-15T08:04:09.188Z,8707
2018-05-15T08:04:39.217Z,8613
2018-05-15T08:05:09.199Z,8673
2018-05-15T08:05:39.281Z,8770
2018-05-15T08:06:09.323Z,8720
2018-05-15T08:06:39.353Z,8570
2018-05-15T08:07:09.368Z,8567
2018-05-15T08:07:39.392Z,8427
2018-05-15T08:08:09.437Z,8447
2018-05-15T08:08:39.465Z,8473
2018-05-15T08:09:09.538Z,8597
2018-05-15T08:09:39.521Z,8670
2018-05-15T08:10:09.588Z,8853
2018-05-15T08:10:39.587Z,8857
2018-05-15T08:11:09.654Z,8787
2018-05-15T08:11:39.689Z,8837
2018-05-15T08:12:09.690Z,8887
2018-05-15T08:12:39.704Z,8910
2018-05-15T08:13:09.770Z,9133
2018-05-15T08:13:39.771Z,9387
2018-05-15T08:14:09.807Z,9390
2018-05-15T08:14:39.831Z,9360
2018-05-15T08:15:09.865Z,9420
2018-05-15T08:15:39.897Z,9683
2018-05-15T08:16:09.927Z,10437
2018-05-15T08:16:39.912Z,9980
2018-05-15T08:17:10.015Z,9943
2018-05-15T08:17:40.035Z,10143
2018-05-15T08:18:10.031Z,9917
2018-05-15T08:18:40.064Z,10137
2018-05-15T08:19:10.132Z,10620
2018-05-15T08:19:40.140Z,9737
2018-05-15T08:20:10.182Z,9413
2018-05-15T08:20:40.208Z,9410
2018-05-15T08:21:10.266Z,9497
2018-05-15T08:21:40.240Z,9373
2018-05-15T08:22:10.254Z,9417
2018-05-15T08:22:40.338Z,9423
2018-05-15T08:23:10.369Z,9690
2018-05-15T08:23:40.341Z,9393
2018-05-15T08:24:10.382Z,9760
2018-05-15T08:24:40.499Z,9800
2018-05-15T08:25:10.526Z,9763
2018-05-15T08:25:40.496Z,10230
2018-05-15T08:26:10.623Z,10947
2018-05-15T08:26:40.585Z,10123
2018-05-15T08:27:10.637Z,10670
2018-05-15T08:27:40.672Z,11173
2018-05-15T08:28:10.679Z,9830
2018-05-15T08:28:40.691Z,10603
2018-05-15T08:29:10.729Z,9813
2018-05-15T08:29:40.722Z,9913
2018-05-15T08:30:10.751Z,9890
2018-05-15T08:30:40.844Z,9950
2018-05-15T08:31:10.868Z,9873
2018-05-15T08:31:40.878Z,9783
2018-05-15T08:32:10.870Z,9960
2018-05-15T08:32:40.922Z,9927
2018-05-15T08:33:10.930Z,10080
2018-05-15T08:33:41.001Z,10287
2018-05-15T08:34:10.999Z,10913
2018-05-15T08:34:41.064Z,10700
2018-05-15T08:35:11.056Z,10767
2018-05-15T08:35:41.159Z,10930
2018-05-15T08:36:11.177Z,11060
2018-05-15T08:36:41.197Z,11287
2018-05-15T08:37:11.194Z,11560
2018-05-15T08:37:41.337Z,12087
2018-05-15T08:38:11.238Z,12820
2018-05-15T08:38:41.332Z,13693
2018-05-15T08:39:11.372Z,14643
2018-05-15T08:39:41.381Z,15593
2018-05-15T08:40:11.423Z,16523
2018-05-15T08:40:41.439Z,18410
2018-05-15T08:41:11.470Z,18103
2018-05-15T08:41:41.495Z,18783
2018-05-15T08:42:11.536Z,19393
2018-05-15T08:42:41.546Z,20857
2018-05-15T08:43:11.634Z,22620
2018-05-15T08:43:41.581Z,22120
2018-05-15T08:44:11.698Z,22413
2018-05-15T08:44:41.680Z,22750
2018-05-15T08:45:11.698Z,22847
2018-05-15T08:45:41.706Z,23047
2018-05-15T08:46:11.879Z,23253
2018-05-15T08:46:41.766Z,23457
2018-05-15T08:47:11.821Z,23373
2018-05-15T08:47:41.864Z,24110
2018-05-15T08:48:11.854Z,24570
2018-05-15T08:48:41.895Z,25190
2018-05-15T08:49:11.964Z,26147
2018-05-15T08:49:41.996Z,26347
2018-05-15T08:50:12.003Z,26273
2018-05-15T08:50:42.037Z,26550
2018-05-15T08:51:12.073Z,26637
2018-05-15T08:51:42.102Z,26360
2018-05-15T08:52:12.156Z,26280
2018-05-15T08:52:42.173Z,26123
2018-05-15T08:53:12.227Z,27163
2018-05-15T08:53:42.261Z,27110
2018-05-15T08:54:12.305Z,26303
2018-05-15T08:54:42.287Z,26437
2018-05-15T08:55:12.334Z,26823
2018-05-15T08:55:42.364Z,26657
2018-05-15T08:56:12.399Z,30157
2018-05-15T08:56:42.446Z,28517
2018-05-15T08:57:12.455Z,25990
2018-05-15T08:57:42.506Z,32910
2018-05-15T08:58:12.526Z,24787
2018-05-15T08:58:42.544Z,27677
2018-05-15T08:59:12.603Z,23213
2018-05-15T08:59:42.624Z,28730
2018-05-15T09:00:12.649Z,29170
2018-05-15T09:00:42.723Z,23907
2018-05-15T09:01:12.830Z,23537
2018-05-15T09:01:42.758Z,29530
2018-05-15T09:02:12.775Z,33920
2018-05-15T09:02:42.810Z,21827
2018-05-15T09:03:12.856Z,21507
2018-05-15T09:03:42.909Z,22963
2018-05-15T09:04:12.894Z,20773
2018-05-15T09:04:42.915Z,20680
2018-05-15T09:05:12.956Z,20883
2018-05-15T09:05:43.016Z,21403
2018-05-15T09:06:13.016Z,21840
2018-05-15T09:06:42.994Z,21470
2018-05-15T09:07:13.076Z,20313
2018-05-15T09:07:43.118Z,20023
2018-05-15T09:08:13.127Z,20027
2018-05-15T09:08:43.175Z,23567
2018-05-15T09:09:13.215Z,23903
2018-05-15T09:09:43.231Z,21147
2018-05-15T09:10:13.266Z,21067
2018-05-15T09:10:43.300Z,24343
2018-05-15T09:11:13.350Z,24470
2018-05-15T09:11:43.357Z,31787
2018-05-15T09:12:13.393Z,31870
2018-05-15T09:12:43.380Z,38410
2018-05-15T09:13:13.467Z,38223
2018-05-15T09:13:43.482Z,25617
2018-05-15T09:14:13.522Z,25850
2018-05-15T09:14:43.522Z,30093
2018-05-15T09:15:13.559Z,40880
2018-05-15T09:15:43.609Z,28987
2018-05-15T09:16:13.865Z,38573
2018-05-15T09:16:43.622Z,38627
2018-05-15T09:17:13.664Z,23983
2018-05-15T09:17:43.709Z,43157
2018-05-15T09:18:13.753Z,35220
2018-05-15T09:18:43.752Z,29740
2018-05-15T09:19:13.806Z,26110
2018-05-15T09:19:43.825Z,27977
2018-05-15T09:20:13.843Z,37983
2018-05-15T09:20:43.868Z,26513
2018-05-15T09:21:13.890Z,42037
2018-05-15T09:21:43.943Z,40797
2018-05-15T09:22:13.955Z,45547
2018-05-15T09:22:43.989Z,46653
2018-05-15T09:23:14.029Z,44203
2018-05-15T09:23:44.053Z,41057
2018-05-15T09:24:14.077Z,27063
2018-05-15T09:24:44.122Z,26580
2018-05-15T09:25:14.166Z,32457
2018-05-15T09:25:44.214Z,40730
2018-05-15T09:26:14.197Z,40260
2018-05-15T09:26:44.273Z,33327
2018-05-15T09:27:14.299Z,46460
2018-05-15T09:27:44.316Z,49067
2018-05-15T09:28:14.362Z,49787
2018-05-15T09:28:44.355Z,51600
2018-05-15T09:29:14.447Z,54147
2018-05-15T09:29:44.499Z,49750
2018-05-15T09:30:14.498Z,52953
2018-05-15T09:30:44.523Z,49777
2018-05-15T09:31:14.590Z,44410
2018-05-15T09:31:44.540Z,41173
2018-05-15T09:32:14.651Z,37613
2018-05-15T09:32:44.642Z,37173
2018-05-15T09:33:14.691Z,37313
2018-05-15T09:33:44.725Z,40033
2018-05-15T09:34:14.744Z,42730
2018-05-15T09:34:44.795Z,46337
2018-05-15T09:35:14.787Z,48690
2018-05-15T09:35:44.787Z,48587
2018-05-15T09:36:14.883Z,50063
2018-05-15T09:36:44.849Z,47433
2018-05-15T09:37:14.955Z,47563
2018-05-15T09:37:44.909Z,51103
2018-05-15T09:38:14.972Z,47060
2018-05-15T09:38:45.012Z,45617
2018-05-15T09:39:15.038Z,42260
2018-05-15T09:39:45.083Z,42033
2018-05-15T09:40:15.113Z,44583
2018-05-15T09:40:45.179Z,45077
2018-05-15T09:41:15.176Z,46207
2018-05-15T09:41:45.237Z,47763
2018-05-15T09:42:15.303Z,47133
2018-05-15T09:42:45.263Z,49203
2018-05-15T09:43:15.283Z,48997
2018-05-15T09:43:45.306Z,48057
2018-05-15T09:44:15.366Z,48900
2018-05-15T09:44:45.377Z,47213
2018-05-15T09:45:15.448Z,46083
2018-05-15T09:45:45.485Z,45770
2018-05-15T09:46:15.469Z,46940
2018-05-15T09:47:15.569Z,45290
2018-05-15T09:47:45.751Z,43803
2018-05-15T09:48:15.608Z,44290
2018-05-15T09:48:45.675Z,46403
2018-05-15T09:49:15.628Z,49870
2018-05-15T09:49:45.722Z,51007
2018-05-15T09:50:15.733Z,49483